createdAt,value
2022-07-30T00:00:46.997Z,19.46
2022-07-30T00:03:13.448Z,19.41
2022-07-30T00:05:39.904Z,19.38
2022-07-30T00:08:06.351Z,19.35
2022-07-30T00:10:32.926Z,19.32
2022-07-30T00:12:59.483Z,19.27
2022-07-30T00:15:25.950Z,19.21
2022-07-30T00:17:52.431Z,19.14
2022-07-30T00:20:19.030Z,19.09
2022-07-30T00:22:45.657Z,19.03
2022-07-30T00:25:12.201Z,18.96
2022-07-30T00:27:38.883Z,18.89
2022-07-30T00:30:06.012Z,18.82
2022-07-30T00:32:32.550Z,18.76
2022-07-30T00:34:58.932Z,18.70
2022-07-30T00:37:25.401Z,18.64
2022-07-30T00:39:52.087Z,18.58
2022-07-30T00:42:25.488Z,18.55
2022-07-30T00:44:53.043Z,18.51
2022-07-30T00:47:20.056Z,18.45
2022-07-30T00:49:46.832Z,18.41
2022-07-30T00:52:13.401Z,18.36
2022-07-30T00:54:39.913Z,18.30
2022-07-30T00:57:06.340Z,18.25
2022-07-30T00:59:33.564Z,18.20
2022-07-30T01:02:01.697Z,18.16
2022-07-30T01:04:28.359Z,18.12
2022-07-30T01:06:54.794Z,18.08
2022-07-30T01:09:21.266Z,18.06
2022-07-30T01:11:48.018Z,18.03
2022-07-30T01:14:14.603Z,18.03
2022-07-30T01:16:43.194Z,18.04
2022-07-30T01:19:41.738Z,18.00
2022-07-30T01:22:43.985Z,17.96
2022-07-30T01:25:27.537Z,17.94
2022-07-30T01:28:06.332Z,17.92
2022-07-30T01:30:35.911Z,17.91
2022-07-30T01:33:04.559Z,17.89
2022-07-30T01:35:33.064Z,17.87
2022-07-30T01:38:01.776Z,17.84
2022-07-30T01:40:29.416Z,17.81
2022-07-30T01:42:58.671Z,17.79
2022-07-30T01:45:28.255Z,17.74
2022-07-30T01:47:58.095Z,17.70
2022-07-30T01:50:25.417Z,17.63
2022-07-30T01:52:54.958Z,17.59
2022-07-30T01:55:27.124Z,17.55
2022-07-30T01:57:55.846Z,17.52
2022-07-30T02:00:24.502Z,17.49
2022-07-30T02:02:50.935Z,17.47
2022-07-30T02:05:17.432Z,17.45
2022-07-30T02:07:59.088Z,17.42
2022-07-30T02:10:36.770Z,17.37
2022-07-30T02:13:06.607Z,17.37
2022-07-30T02:15:44.486Z,17.35
2022-07-30T02:18:23.820Z,17.31
2022-07-30T02:21:13.226Z,17.24
2022-07-30T02:23:44.071Z,17.23
2022-07-30T02:26:18.446Z,17.19
2022-07-30T02:28:49.553Z,17.14
2022-07-30T02:31:19.193Z,17.12
2022-07-30T02:33:49.563Z,17.09
2022-07-30T02:36:18.719Z,17.03
2022-07-30T02:38:47.239Z,17.02
2022-07-30T02:41:15.120Z,16.93
2022-07-30T02:43:42.842Z,16.89
2022-07-30T02:46:12.739Z,16.84
2022-07-30T02:48:41.157Z,16.78
2022-07-30T02:51:08.635Z,16.74
2022-07-30T02:53:36.643Z,16.71
2022-07-30T02:56:07.539Z,16.67
2022-07-30T02:58:35.683Z,16.65
2022-07-30T03:01:03.104Z,16.63
2022-07-30T03:03:30.713Z,16.58
2022-07-30T03:05:59.583Z,16.55
2022-07-30T03:08:31.459Z,16.50
2022-07-30T03:10:58.166Z,16.45
2022-07-30T03:13:25.487Z,16.43
2022-07-30T03:15:53.757Z,16.38
2022-07-30T03:18:22.295Z,16.35
2022-07-30T03:20:56.108Z,16.32
2022-07-30T03:23:24.191Z,16.27
2022-07-30T03:26:02.126Z,16.23
2022-07-30T03:28:31.741Z,16.20
2022-07-30T03:30:58.575Z,16.16
2022-07-30T03:33:38.200Z,16.14
2022-07-30T03:36:06.988Z,16.11
2022-07-30T03:38:36.725Z,16.09
2022-07-30T03:41:04.601Z,16.06
2022-07-30T03:43:32.702Z,16.04
2022-07-30T03:46:02.739Z,16.02
2022-07-30T03:48:29.481Z,16.01
2022-07-30T03:50:56.247Z,16.00
2022-07-30T03:53:27.551Z,15.99
2022-07-30T03:55:54.857Z,15.97
2022-07-30T03:58:21.700Z,15.95
2022-07-30T04:00:50.555Z,15.93
2022-07-30T04:03:27.782Z,15.92
2022-07-30T04:05:54.454Z,15.90
2022-07-30T04:08:20.974Z,15.89
2022-07-30T04:10:48.888Z,15.86
2022-07-30T04:13:15.857Z,15.87
2022-07-30T04:16:05.704Z,15.86
2022-07-30T04:18:50.119Z,15.84
2022-07-30T04:21:19.076Z,15.83
2022-07-30T04:24:02.837Z,15.84
2022-07-30T04:26:33.838Z,15.83
2022-07-30T04:29:02.454Z,15.84
2022-07-30T04:31:29.683Z,15.85
2022-07-30T04:33:58.887Z,15.87
2022-07-30T04:36:32.670Z,15.86
2022-07-30T04:39:00.197Z,15.88
2022-07-30T04:41:26.669Z,15.89
2022-07-30T04:43:53.072Z,15.88
2022-07-30T04:46:19.596Z,15.89
2022-07-30T04:48:48.315Z,15.90
2022-07-30T04:51:31.923Z,15.92
2022-07-30T04:53:59.557Z,15.92
2022-07-30T04:56:26.448Z,15.95
2022-07-30T04:58:54.696Z,15.95
2022-07-30T05:01:34.140Z,15.98
2022-07-30T05:04:10.071Z,15.97
2022-07-30T05:06:38.525Z,15.99
2022-07-30T05:09:06.195Z,15.99
2022-07-30T05:11:32.615Z,16.02
2022-07-30T05:13:59.055Z,16.06
2022-07-30T05:16:25.760Z,16.11
2022-07-30T05:18:52.179Z,16.14
2022-07-30T05:21:18.698Z,16.18
2022-07-30T05:23:50.601Z,16.22
2022-07-30T05:26:21.596Z,16.26
2022-07-30T05:28:53.588Z,16.31
2022-07-30T05:31:22.037Z,16.37
2022-07-30T05:33:48.517Z,16.42
2022-07-30T05:36:15.018Z,16.48
2022-07-30T05:38:41.530Z,16.54
2022-07-30T05:41:19.177Z,16.61
2022-07-30T05:43:55.833Z,16.68
2022-07-30T05:46:23.260Z,16.78
2022-07-30T05:48:49.927Z,16.87
2022-07-30T05:51:16.900Z,16.97
2022-07-30T05:53:43.401Z,17.09
2022-07-30T05:56:09.901Z,17.19
2022-07-30T05:58:36.609Z,17.29
2022-07-30T06:01:03.061Z,17.39
2022-07-30T06:03:29.492Z,17.51
2022-07-30T06:05:55.982Z,17.61
2022-07-30T06:08:22.439Z,17.73
2022-07-30T06:10:48.866Z,17.82
2022-07-30T06:13:15.283Z,17.93
2022-07-30T06:15:41.749Z,18.05
2022-07-30T06:18:08.258Z,18.13
2022-07-30T06:20:35.226Z,18.24
2022-07-30T06:23:01.873Z,18.34
2022-07-30T06:25:28.298Z,18.40
2022-07-30T06:27:54.735Z,18.48
2022-07-30T06:30:21.248Z,18.56
2022-07-30T06:32:57.760Z,18.66
2022-07-30T06:35:24.189Z,18.73
2022-07-30T06:37:59.595Z,18.83
2022-07-30T06:40:34.140Z,18.93
2022-07-30T06:43:00.687Z,19.02
2022-07-30T06:45:27.161Z,19.13
2022-07-30T06:47:59.129Z,19.21
2022-07-30T06:50:27.641Z,19.35
2022-07-30T06:52:54.144Z,19.47
2022-07-30T06:55:20.539Z,19.61
2022-07-30T06:57:47.013Z,19.75
2022-07-30T07:00:13.908Z,19.87
2022-07-30T07:02:42.600Z,19.98
2022-07-30T07:05:09.595Z,20.04
2022-07-30T07:07:41.834Z,20.15
2022-07-30T07:10:09.099Z,20.23
2022-07-30T07:12:35.527Z,20.30
2022-07-30T07:15:03.762Z,20.36
2022-07-30T07:17:30.307Z,20.44
2022-07-30T07:20:01.471Z,20.47
2022-07-30T07:22:28.812Z,20.50
2022-07-30T07:24:56.572Z,20.57
2022-07-30T07:27:23.189Z,20.58
2022-07-30T07:30:04.429Z,20.61
2022-07-30T07:32:32.457Z,20.63
2022-07-30T07:35:00.027Z,20.68
2022-07-30T07:37:26.531Z,20.74
2022-07-30T07:39:53.088Z,20.81
2022-07-30T07:42:19.533Z,20.88
2022-07-30T07:44:45.950Z,20.98
2022-07-30T07:47:12.397Z,21.09
2022-07-30T07:49:47.887Z,21.14
2022-07-30T07:52:14.307Z,21.16
2022-07-30T07:54:40.805Z,21.16
2022-07-30T07:57:08.028Z,21.16
2022-07-30T07:59:40.615Z,21.16
2022-07-30T08:02:08.587Z,21.18
2022-07-30T08:04:35.981Z,21.20
2022-07-30T08:07:03.145Z,21.27
2022-07-30T08:09:44.290Z,21.30
2022-07-30T08:12:12.330Z,21.36
2022-07-30T08:14:39.113Z,21.34
2022-07-30T08:17:06.226Z,21.39
2022-07-30T08:19:33.102Z,21.43
2022-07-30T08:21:59.651Z,21.49
2022-07-30T08:24:27.204Z,21.55
2022-07-30T08:26:53.773Z,21.60
2022-07-30T08:29:20.301Z,21.70
2022-07-30T08:31:46.728Z,21.72
2022-07-30T08:34:13.686Z,21.76
2022-07-30T08:36:41.029Z,21.84
2022-07-30T08:39:07.790Z,21.92
2022-07-30T08:41:36.323Z,21.96
2022-07-30T08:44:03.852Z,22.00
2022-07-30T08:46:32.130Z,22.08
2022-07-30T08:49:00.543Z,22.20
2022-07-30T08:51:35.917Z,22.25
2022-07-30T08:54:03.720Z,22.28
2022-07-30T08:56:31.932Z,22.36
2022-07-30T08:59:00.160Z,22.44
2022-07-30T09:01:26.784Z,22.49
2022-07-30T09:03:53.370Z,22.57
2022-07-30T09:06:19.907Z,22.63
2022-07-30T09:08:46.457Z,22.71
2022-07-30T09:11:12.928Z,22.78
2022-07-30T09:13:48.400Z,22.94
2022-07-30T09:16:26.036Z,23.06
2022-07-30T09:18:54.067Z,23.11
2022-07-30T09:21:26.490Z,23.25
2022-07-30T09:23:55.898Z,23.33
2022-07-30T09:26:22.321Z,23.37
2022-07-30T09:28:48.821Z,23.40
2022-07-30T09:31:16.709Z,23.45
2022-07-30T09:33:45.119Z,23.56
2022-07-30T09:36:16.464Z,23.59
2022-07-30T09:38:48.628Z,23.64
2022-07-30T09:41:37.654Z,23.69
2022-07-30T09:44:05.086Z,23.80
2022-07-30T09:46:47.614Z,23.98
2022-07-30T09:49:16.851Z,24.03
2022-07-30T09:51:56.044Z,24.13
2022-07-30T09:57:22.876Z,24.32
2022-07-30T09:59:54.962Z,24.45
2022-07-30T10:02:28.358Z,24.47
2022-07-30T10:04:54.938Z,24.43
2022-07-30T10:07:25.389Z,24.49
2022-07-30T10:09:53.345Z,24.63
2022-07-30T10:12:24.042Z,24.64
2022-07-30T10:14:53.648Z,24.70
2022-07-30T10:17:20.848Z,24.85
2022-07-30T10:19:48.942Z,24.91
2022-07-30T10:22:17.198Z,25.01
2022-07-30T10:24:45.736Z,25.04
2022-07-30T10:27:12.935Z,25.21
2022-07-30T10:29:42.662Z,25.31
2022-07-30T10:32:09.573Z,25.45
2022-07-30T10:34:38.172Z,25.56
2022-07-30T10:37:12.442Z,25.71
2022-07-30T10:39:47.090Z,25.84
2022-07-30T10:42:38.159Z,25.88
2022-07-30T10:45:36.991Z,26.09
2022-07-30T10:48:13.327Z,26.22
2022-07-30T10:50:54.410Z,26.37
2022-07-30T10:53:42.787Z,26.45
2022-07-30T10:56:15.227Z,26.34
2022-07-30T10:59:11.420Z,26.49
2022-07-30T11:02:00.658Z,26.63
2022-07-30T11:04:29.989Z,26.77
2022-07-30T11:07:30.236Z,26.82
2022-07-30T11:10:09.181Z,26.97
2022-07-30T11:12:42.281Z,26.99
2022-07-30T11:15:19.260Z,27.08
2022-07-30T11:18:12.174Z,27.17
2022-07-30T11:20:40.723Z,27.26
2022-07-30T11:23:10.697Z,27.27
2022-07-30T11:25:51.485Z,27.45
2022-07-30T11:28:40.800Z,27.51
2022-07-30T11:31:55.807Z,27.62
2022-07-30T11:34:19.795Z,27.83
2022-07-30T11:37:22.144Z,27.97
2022-07-30T11:39:58.310Z,28.07
2022-07-30T11:42:34.685Z,28.16
2022-07-30T11:45:16.610Z,28.20
2022-07-30T11:47:53.782Z,28.26
2022-07-30T11:50:26.238Z,28.39
2022-07-30T11:52:58.568Z,28.33
2022-07-30T11:55:27.699Z,28.44
2022-07-30T11:58:00.521Z,28.45
2022-07-30T12:00:34.933Z,28.53
2022-07-30T12:03:07.868Z,28.65
2022-07-30T12:05:34.447Z,28.70
2022-07-30T12:08:00.919Z,28.81
2022-07-30T12:10:27.651Z,28.79
2022-07-30T12:13:07.953Z,28.84
2022-07-30T12:15:37.399Z,28.87
2022-07-30T12:18:26.221Z,28.85
2022-07-30T12:20:54.827Z,28.97
2022-07-30T12:23:24.493Z,29.11
2022-07-30T12:25:51.712Z,29.13
2022-07-30T12:28:23.824Z,29.24
2022-07-30T12:30:52.092Z,29.07
2022-07-30T12:33:19.366Z,29.14
2022-07-30T12:35:48.140Z,29.25
2022-07-30T12:38:16.377Z,29.34
2022-07-30T12:41:03.567Z,29.41
2022-07-30T12:43:55.794Z,29.51
2022-07-30T12:46:27.177Z,29.55
2022-07-30T12:48:55.203Z,29.57
2022-07-30T12:51:24.365Z,29.64
2022-07-30T12:53:51.573Z,29.71
2022-07-30T12:56:20.930Z,29.67
2022-07-30T12:58:47.528Z,29.49
2022-07-30T13:01:15.620Z,29.46
2022-07-30T13:03:43.077Z,29.46
2022-07-30T13:06:25.649Z,29.56
2022-07-30T13:08:53.767Z,29.63
2022-07-30T13:11:22.442Z,29.74
2022-07-30T13:13:50.669Z,29.93
2022-07-30T13:16:18.519Z,30.02
2022-07-30T13:18:45.683Z,30.18
2022-07-30T13:21:13.425Z,30.22
2022-07-30T13:23:41.488Z,30.34
2022-07-30T13:26:08.940Z,30.37
2022-07-30T13:28:35.761Z,30.54
2022-07-30T13:31:02.707Z,30.67
2022-07-30T13:33:29.485Z,30.75
2022-07-30T13:35:55.894Z,30.87
2022-07-30T13:38:22.469Z,30.91
2022-07-30T13:40:49.054Z,31.04
2022-07-30T13:43:15.527Z,31.12
2022-07-30T13:45:42.233Z,31.15
2022-07-30T13:48:08.695Z,31.26
2022-07-30T13:50:35.520Z,31.28
2022-07-30T13:53:02.738Z,31.17
2022-07-30T13:55:29.823Z,31.07
2022-07-30T13:57:56.365Z,31.01
2022-07-30T14:00:23.108Z,31.10
2022-07-30T14:02:49.663Z,30.98
2022-07-30T14:05:16.186Z,31.08
2022-07-30T14:07:42.659Z,31.29
2022-07-30T14:10:09.360Z,31.41
2022-07-30T14:12:35.977Z,31.47
2022-07-30T14:15:02.573Z,31.43
2022-07-30T14:17:29.179Z,31.62
2022-07-30T14:19:56.014Z,31.88
2022-07-30T14:22:22.524Z,31.94
2022-07-30T14:24:49.074Z,31.99
2022-07-30T14:27:15.704Z,32.26
2022-07-30T14:29:42.141Z,32.40
2022-07-30T14:32:08.569Z,32.64
2022-07-30T14:34:35.007Z,32.80
2022-07-30T14:37:01.920Z,32.91
2022-07-30T14:39:28.620Z,33.01
2022-07-30T14:41:56.105Z,33.06
2022-07-30T14:44:23.298Z,33.14
2022-07-30T14:46:52.363Z,33.16
2022-07-30T14:49:28.693Z,32.84
2022-07-30T14:51:55.164Z,32.70
2022-07-30T14:54:22.531Z,32.43
2022-07-30T14:56:52.579Z,32.44
2022-07-30T14:59:21.391Z,32.27
2022-07-30T15:01:47.968Z,32.02
2022-07-30T15:04:14.920Z,32.28
2022-07-30T15:06:41.909Z,32.39
2022-07-30T15:09:09.165Z,32.84
2022-07-30T15:12:03.551Z,32.92
2022-07-30T15:14:22.951Z,33.27
2022-07-30T15:16:51.116Z,33.39
2022-07-30T15:19:17.558Z,33.62
2022-07-30T15:21:44.765Z,33.67
2022-07-30T15:24:11.271Z,33.77
2022-07-30T15:26:37.776Z,33.80
2022-07-30T15:29:04.220Z,33.83
2022-07-30T15:31:30.656Z,33.80
2022-07-30T15:33:57.084Z,33.92
2022-07-30T15:36:23.548Z,33.82
2022-07-30T15:38:49.954Z,33.79
2022-07-30T15:41:17.952Z,33.96
2022-07-30T15:43:44.525Z,33.85
2022-07-30T15:46:11.024Z,34.11
2022-07-30T15:48:37.812Z,34.09
2022-07-30T15:51:05.004Z,34.26
2022-07-30T15:53:32.351Z,34.21
2022-07-30T15:55:59.833Z,34.46
2022-07-30T15:58:26.441Z,34.74
2022-07-30T16:00:52.991Z,35.03
2022-07-30T16:03:19.506Z,35.16
2022-07-30T16:05:51.744Z,34.85
2022-07-30T16:08:20.230Z,34.61
2022-07-30T16:10:46.831Z,34.66
2022-07-30T16:13:13.328Z,34.82
2022-07-30T16:15:39.841Z,34.77
2022-07-30T16:18:06.408Z,34.62
2022-07-30T16:20:33.405Z,34.39
2022-07-30T16:22:59.860Z,34.57
2022-07-30T16:25:26.638Z,34.51
2022-07-30T16:27:53.260Z,34.38
2022-07-30T16:30:19.947Z,34.47
2022-07-30T16:32:46.378Z,34.62
2022-07-30T16:35:13.468Z,34.84
2022-07-30T16:37:40.049Z,34.90
2022-07-30T16:40:06.869Z,34.64
2022-07-30T16:42:33.304Z,34.22
2022-07-30T16:44:59.778Z,33.61
2022-07-30T16:47:26.320Z,33.02
2022-07-30T16:49:52.860Z,32.46
2022-07-30T16:52:19.540Z,31.94
2022-07-30T16:54:46.088Z,31.69
2022-07-30T16:57:12.792Z,31.42
2022-07-30T16:59:42.217Z,31.22
2022-07-30T17:02:10.472Z,30.96
2022-07-30T17:04:36.908Z,30.82
2022-07-30T17:07:03.312Z,30.52
2022-07-30T17:09:36.304Z,30.19
2022-07-30T17:12:05.357Z,29.89
2022-07-30T17:14:34.472Z,29.56
2022-07-30T17:17:00.976Z,29.50
2022-07-30T17:19:27.494Z,29.40
2022-07-30T17:21:53.932Z,29.27
2022-07-30T17:24:20.957Z,29.14
2022-07-30T17:26:47.340Z,28.98
2022-07-30T17:29:15.661Z,28.87
2022-07-30T17:31:44.198Z,28.67
2022-07-30T17:34:13.914Z,28.56
2022-07-30T17:36:42.952Z,28.52
2022-07-30T17:40:04.358Z,28.52
2022-07-30T17:42:05.211Z,28.46
2022-07-30T17:44:32.084Z,28.46
2022-07-30T17:46:59.007Z,28.54
2022-07-30T17:49:25.485Z,28.51
2022-07-30T17:51:51.933Z,28.56
2022-07-30T17:54:18.333Z,28.58
2022-07-30T17:56:44.965Z,28.49
2022-07-30T17:59:13.912Z,28.43
2022-07-30T18:01:40.668Z,28.41
2022-07-30T18:04:07.140Z,28.39
2022-07-30T18:06:33.786Z,28.40
2022-07-30T18:09:00.246Z,28.44
2022-07-30T18:11:26.680Z,28.43
2022-07-30T18:13:53.455Z,28.37
2022-07-30T18:16:19.848Z,28.25
2022-07-30T18:18:46.267Z,28.00
2022-07-30T18:21:12.714Z,27.90
2022-07-30T18:23:39.172Z,27.84
2022-07-30T18:26:05.761Z,27.76
2022-07-30T18:28:33.290Z,27.80
2022-07-30T18:30:59.721Z,27.81
2022-07-30T18:33:26.156Z,27.80
2022-07-30T18:35:52.602Z,27.75
2022-07-30T18:38:19.168Z,27.67
2022-07-30T18:40:57.450Z,27.62
2022-07-30T18:43:28.225Z,27.53
2022-07-30T18:45:55.890Z,27.43
2022-07-30T18:48:22.927Z,27.32
2022-07-30T18:50:49.638Z,27.25
2022-07-30T18:53:16.861Z,27.16
2022-07-30T18:55:44.000Z,27.01
2022-07-30T18:58:10.543Z,26.92
2022-07-30T19:00:37.496Z,26.81
2022-07-30T19:03:04.314Z,26.70
2022-07-30T19:05:31.006Z,26.57
2022-07-30T19:07:58.208Z,26.45
2022-07-30T19:10:26.549Z,26.31
2022-07-30T19:12:54.028Z,26.17
2022-07-30T19:15:20.535Z,26.07
2022-07-30T19:17:48.920Z,25.92
2022-07-30T19:20:15.516Z,25.82
2022-07-30T19:22:41.976Z,25.67
2022-07-30T19:25:09.081Z,25.57
2022-07-30T19:27:35.749Z,25.46
2022-07-30T19:30:03.720Z,25.33
2022-07-30T19:32:30.284Z,25.24
2022-07-30T19:34:56.752Z,25.17
2022-07-30T19:37:23.665Z,25.10
2022-07-30T19:39:58.877Z,24.97
2022-07-30T19:42:33.787Z,24.88
2022-07-30T19:45:01.343Z,24.81
2022-07-30T19:47:39.625Z,24.70
2022-07-30T19:50:09.998Z,24.65
2022-07-30T19:52:36.794Z,24.58
2022-07-30T19:55:17.262Z,24.52
2022-07-30T19:57:54.225Z,24.47
2022-07-30T20:00:24.912Z,24.43
2022-07-30T20:02:52.549Z,24.36
2022-07-30T20:05:19.492Z,24.34
2022-07-30T20:07:47.103Z,24.31
2022-07-30T20:10:15.685Z,24.31
2022-07-30T20:12:42.917Z,24.29
2022-07-30T20:15:16.164Z,24.24
2022-07-30T20:17:42.606Z,24.23
2022-07-30T20:20:10.459Z,24.20
2022-07-30T20:22:36.888Z,24.19
2022-07-30T20:25:06.411Z,24.17
2022-07-30T20:27:36.094Z,24.15
2022-07-30T20:30:04.818Z,24.10
2022-07-30T20:32:31.317Z,24.07
2022-07-30T20:34:58.399Z,24.02
2022-07-30T20:37:27.372Z,23.95
2022-07-30T20:39:54.779Z,23.92
2022-07-30T20:42:21.755Z,23.89
2022-07-30T20:44:51.234Z,23.84
2022-07-30T20:47:34.243Z,23.80
2022-07-30T20:50:02.027Z,23.73
2022-07-30T20:52:28.455Z,23.69
2022-07-30T20:54:55.963Z,23.65
2022-07-30T20:57:56.754Z,23.61
2022-07-30T21:00:09.568Z,23.58
2022-07-30T21:02:36.083Z,23.55
2022-07-30T21:05:04.905Z,23.51
2022-07-30T21:07:36.429Z,23.49
2022-07-30T21:10:04.568Z,23.45
2022-07-30T21:12:33.696Z,23.43
2022-07-30T21:15:00.553Z,23.41
2022-07-30T21:17:27.030Z,23.39
2022-07-30T21:19:54.772Z,23.36
2022-07-30T21:22:22.106Z,23.33
2022-07-30T21:24:50.475Z,23.33
2022-07-30T21:27:16.918Z,23.29
2022-07-30T21:29:45.529Z,23.24
2022-07-30T21:32:12.260Z,23.21
2022-07-30T21:34:40.513Z,23.17
2022-07-30T21:37:08.907Z,23.13
2022-07-30T21:39:39.765Z,23.11
2022-07-30T21:42:08.502Z,23.08
2022-07-30T21:44:35.609Z,23.09
2022-07-30T21:47:02.049Z,23.09
2022-07-30T21:49:29.216Z,23.08
2022-07-30T21:51:58.084Z,23.08
2022-07-30T21:54:29.397Z,23.07
2022-07-30T21:56:58.266Z,23.07
2022-07-30T21:59:25.100Z,23.07
2022-07-30T22:01:55.183Z,23.04
2022-07-30T22:04:21.836Z,23.03
2022-07-30T22:06:48.294Z,23.03
2022-07-30T22:09:19.375Z,23.03
2022-07-30T22:12:00.679Z,22.98
2022-07-30T22:14:28.085Z,22.98
2022-07-30T22:16:55.418Z,22.97
2022-07-30T22:19:21.910Z,22.94
2022-07-30T22:21:51.104Z,22.94
2022-07-30T22:24:29.349Z,22.90
2022-07-30T22:27:11.078Z,22.87
2022-07-30T22:29:43.100Z,22.82
2022-07-30T22:32:10.094Z,22.77
2022-07-30T22:34:37.341Z,22.70
2022-07-30T22:37:03.798Z,22.67
2022-07-30T22:39:32.383Z,22.64
2022-07-30T22:42:16.967Z,22.59
2022-07-30T22:44:45.803Z,22.57
2022-07-30T22:47:20.917Z,22.56
2022-07-30T22:50:00.705Z,22.52
2022-07-30T22:52:27.531Z,22.51
2022-07-30T22:54:59.680Z,22.50
2022-07-30T22:57:37.568Z,22.48
2022-07-30T23:00:07.241Z,22.52
2022-07-30T23:02:37.696Z,22.49
2022-07-30T23:05:04.624Z,22.48
2022-07-30T23:07:38.103Z,22.47
2022-07-30T23:10:20.487Z,22.44
2022-07-30T23:12:53.591Z,22.40
2022-07-30T23:15:20.763Z,22.37
2022-07-30T23:17:47.845Z,22.36
2022-07-30T23:20:20.363Z,22.35
2022-07-30T23:22:47.055Z,22.32
2022-07-30T23:25:13.897Z,22.29
2022-07-30T23:27:41.367Z,22.28
2022-07-30T23:30:09.669Z,22.27
2022-07-30T23:32:36.678Z,22.24
2022-07-30T23:35:03.295Z,22.22
2022-07-30T23:37:29.761Z,22.23
2022-07-30T23:40:14.340Z,22.21
2022-07-30T23:42:40.805Z,22.21
2022-07-30T23:45:07.399Z,22.16
2022-07-30T23:47:49.567Z,22.16
2022-07-30T23:50:20.600Z,22.13
2022-07-30T23:52:47.143Z,22.12
2022-07-30T23:55:13.764Z,22.10
2022-07-30T23:57:40.152Z,22.11
